createdAt,value
2023-02-09T00:01:29.393Z,-4.62
2023-02-09T00:03:57.409Z,-4.61
2023-02-09T00:06:25.322Z,-4.56
2023-02-09T00:08:52.763Z,-4.64
2023-02-09T00:11:48.789Z,-4.72
2023-02-09T00:14:20.304Z,-4.85
2023-02-09T00:16:49.126Z,-4.84
2023-02-09T00:19:16.888Z,-5.04
2023-02-09T00:21:44.049Z,-5.01
2023-02-09T00:24:13.437Z,-4.94
2023-02-09T00:26:41.343Z,-4.86
2023-02-09T00:29:09.450Z,-4.86
2023-02-09T00:31:37.469Z,-4.89
2023-02-09T00:34:05.032Z,-4.87
2023-02-09T00:36:32.677Z,-4.93
2023-02-09T00:39:00.673Z,-5.09
2023-02-09T00:41:46.521Z,-5.49
2023-02-09T00:44:14.060Z,-5.36
2023-02-09T00:46:40.993Z,-5.26
2023-02-09T00:49:08.312Z,-5.14
2023-02-09T00:51:35.548Z,-5.05
2023-02-09T00:54:03.390Z,-5.08
2023-02-09T00:56:30.613Z,-5.06
2023-02-09T00:58:59.576Z,-5.16
2023-02-09T01:01:26.635Z,-5.49
2023-02-09T01:03:53.903Z,-5.73
2023-02-09T01:06:21.293Z,-5.60
2023-02-09T01:08:50.928Z,-5.57
2023-02-09T01:11:18.991Z,-5.36
2023-02-09T01:13:47.174Z,-5.38
2023-02-09T01:16:18.124Z,-5.47
2023-02-09T01:18:45.667Z,-5.50
2023-02-09T01:21:14.735Z,-5.44
2023-02-09T01:23:42.682Z,-5.51
2023-02-09T01:26:11.695Z,-5.44
2023-02-09T01:28:39.673Z,-5.40
2023-02-09T01:31:17.688Z,-5.39
2023-02-09T01:33:45.596Z,-5.41
2023-02-09T01:36:12.555Z,-5.37
2023-02-09T01:38:39.780Z,-5.30
2023-02-09T01:41:09.305Z,-5.49
2023-02-09T01:43:54.510Z,-5.43
2023-02-09T01:46:24.012Z,-5.56
2023-02-09T01:48:55.999Z,-5.57
2023-02-09T01:51:24.906Z,-5.45
2023-02-09T01:53:52.267Z,-5.63
2023-02-09T01:56:28.550Z,-5.59
2023-02-09T01:58:56.396Z,-5.63
2023-02-09T02:01:24.661Z,-5.69
2023-02-09T02:03:54.504Z,-5.67
2023-02-09T02:06:22.008Z,-5.70
2023-02-09T02:09:07.001Z,-5.74
2023-02-09T02:11:35.119Z,-5.85
2023-02-09T02:14:02.087Z,-6.10
2023-02-09T02:16:49.222Z,-6.05
2023-02-09T02:19:47.997Z,-6.03
2023-02-09T02:22:33.923Z,-6.06
2023-02-09T02:25:06.940Z,-6.15
2023-02-09T02:27:46.982Z,-6.16
2023-02-09T02:30:32.255Z,-6.01
2023-02-09T02:33:11.741Z,-6.08
2023-02-09T02:35:54.869Z,-6.17
2023-02-09T02:38:38.927Z,-6.13
2023-02-09T02:41:13.337Z,-6.29
2023-02-09T02:43:58.954Z,-6.40
2023-02-09T02:46:48.773Z,-6.36
2023-02-09T02:49:33.759Z,-6.24
2023-02-09T02:52:07.021Z,-6.24
2023-02-09T02:54:39.197Z,-6.22
2023-02-09T02:57:30.010Z,-6.11
2023-02-09T03:00:05.635Z,-6.42
2023-02-09T03:02:38.886Z,-6.59
2023-02-09T03:05:07.932Z,-6.74
2023-02-09T03:07:34.990Z,-6.51
2023-02-09T03:10:03.300Z,-6.50
2023-02-09T03:12:47.654Z,-6.48
2023-02-09T03:15:44.812Z,-6.33
2023-02-09T03:18:21.440Z,-6.28
2023-02-09T03:21:03.202Z,-6.40
2023-02-09T03:23:45.750Z,-6.44
2023-02-09T03:26:25.635Z,-6.37
2023-02-09T03:28:56.636Z,-6.52
2023-02-09T03:31:24.771Z,-6.57
2023-02-09T03:33:52.198Z,-6.56
2023-02-09T03:36:21.084Z,-6.72
2023-02-09T03:38:48.074Z,-6.72
2023-02-09T03:41:15.367Z,-6.73
2023-02-09T03:44:00.903Z,-6.95
2023-02-09T03:46:28.002Z,-7.30
2023-02-09T03:48:54.958Z,-7.17
2023-02-09T03:51:21.980Z,-7.00
2023-02-09T03:53:48.913Z,-7.10
2023-02-09T03:56:15.950Z,-7.02
2023-02-09T03:58:42.974Z,-6.86
2023-02-09T04:01:11.826Z,-6.86
2023-02-09T04:03:40.304Z,-6.97
2023-02-09T04:06:10.120Z,-7.03
2023-02-09T04:08:37.543Z,-7.09
2023-02-09T04:11:04.999Z,-7.06
2023-02-09T04:13:32.158Z,-7.41
2023-02-09T04:15:59.355Z,-7.49
2023-02-09T04:18:26.631Z,-7.30
2023-02-09T04:20:53.553Z,-7.30
2023-02-09T04:23:21.285Z,-7.66
2023-02-09T04:25:48.257Z,-7.88
2023-02-09T04:28:17.927Z,-7.66
2023-02-09T04:30:45.503Z,-7.53
2023-02-09T04:33:13.446Z,-8.06
2023-02-09T04:35:40.413Z,-8.03
2023-02-09T04:38:07.857Z,-8.08
2023-02-09T04:40:35.060Z,-8.12
2023-02-09T04:43:02.250Z,-8.24
2023-02-09T04:45:29.215Z,-8.46
2023-02-09T04:47:56.702Z,-8.38
2023-02-09T04:50:23.958Z,-8.49
2023-02-09T04:52:52.176Z,-8.47
2023-02-09T04:55:19.151Z,-8.59
2023-02-09T04:58:05.278Z,-8.40
2023-02-09T05:00:32.764Z,-8.19
2023-02-09T05:03:00.023Z,-8.02
2023-02-09T05:05:27.587Z,-8.09
2023-02-09T05:07:54.906Z,-8.18
2023-02-09T05:10:22.678Z,-8.25
2023-02-09T05:12:49.710Z,-8.10
2023-02-09T05:15:17.443Z,-7.89
2023-02-09T05:17:44.411Z,-7.84
2023-02-09T05:20:11.896Z,-7.90
2023-02-09T05:22:39.136Z,-7.77
2023-02-09T05:25:06.749Z,-7.78
2023-02-09T05:27:33.996Z,-7.65
2023-02-09T05:30:01.452Z,-7.62
2023-02-09T05:32:28.723Z,-7.87
2023-02-09T05:34:55.695Z,-7.99
2023-02-09T05:37:23.199Z,-7.90
2023-02-09T05:39:51.318Z,-7.88
2023-02-09T05:42:19.917Z,-8.09
2023-02-09T05:44:49.117Z,-8.22
2023-02-09T05:47:22.883Z,-8.20
2023-02-09T05:49:50.500Z,-8.14
2023-02-09T05:52:18.132Z,-8.24
2023-02-09T05:54:47.736Z,-8.49
2023-02-09T05:57:16.101Z,-8.31
2023-02-09T05:59:43.541Z,-8.34
2023-02-09T06:02:10.964Z,-8.19
2023-02-09T06:04:38.978Z,-8.33
2023-02-09T06:07:05.957Z,-8.36
2023-02-09T06:09:33.667Z,-8.52
2023-02-09T06:12:00.952Z,-8.50
2023-02-09T06:14:28.332Z,-8.38
2023-02-09T06:16:55.818Z,-8.45
2023-02-09T06:19:22.912Z,-8.47
2023-02-09T06:21:50.489Z,-8.43
2023-02-09T06:24:17.440Z,-8.31
2023-02-09T06:26:45.150Z,-8.06
2023-02-09T06:29:12.588Z,-7.82
2023-02-09T06:31:42.178Z,-7.73
2023-02-09T06:34:09.900Z,-7.46
2023-02-09T06:36:37.394Z,-7.42
2023-02-09T06:39:08.534Z,-7.79
2023-02-09T06:41:36.915Z,-7.85
2023-02-09T06:44:04.913Z,-7.62
2023-02-09T06:46:32.850Z,-7.79
2023-02-09T06:48:59.905Z,-7.98
2023-02-09T06:51:27.632Z,-8.14
2023-02-09T06:53:54.763Z,-8.04
2023-02-09T06:56:22.020Z,-7.57
2023-02-09T06:58:49.028Z,-7.17
2023-02-09T07:01:16.464Z,-6.92
2023-02-09T07:03:45.098Z,-6.99
2023-02-09T07:06:16.841Z,-7.51
2023-02-09T07:08:44.966Z,-7.24
2023-02-09T07:11:14.635Z,-7.13
2023-02-09T07:13:43.151Z,-6.58
2023-02-09T07:16:12.005Z,-6.43
2023-02-09T07:18:39.885Z,-6.39
2023-02-09T07:21:09.942Z,-5.96
2023-02-09T07:23:37.602Z,-5.84
2023-02-09T07:26:06.320Z,-5.73
2023-02-09T07:28:34.450Z,-5.59
2023-02-09T07:31:10.483Z,-5.31
2023-02-09T07:33:37.721Z,-5.19
2023-02-09T07:36:07.200Z,-4.93
2023-02-09T07:38:35.422Z,-4.86
2023-02-09T07:41:04.448Z,-4.61
2023-02-09T07:43:32.562Z,-4.42
2023-02-09T07:46:04.929Z,-4.32
2023-02-09T07:48:32.850Z,-4.30
2023-02-09T07:51:00.083Z,-4.06
2023-02-09T07:53:28.921Z,-4.48
2023-02-09T07:55:56.058Z,-4.38
2023-02-09T07:58:23.599Z,-4.11
2023-02-09T08:00:52.153Z,-4.04
2023-02-09T08:03:21.557Z,-4.11
2023-02-09T08:06:03.590Z,-4.20
2023-02-09T08:08:30.848Z,-4.58
2023-02-09T08:11:00.864Z,-4.57
2023-02-09T08:13:31.628Z,-4.13
2023-02-09T08:16:04.939Z,-4.13
2023-02-09T08:18:41.118Z,-4.28
2023-02-09T08:21:11.160Z,-3.96
2023-02-09T08:23:40.619Z,-3.70
2023-02-09T08:26:11.464Z,-3.42
2023-02-09T08:28:44.427Z,-3.25
2023-02-09T08:31:14.097Z,-3.18
2023-02-09T08:33:42.612Z,-2.96
2023-02-09T08:36:10.461Z,-2.93
2023-02-09T08:38:37.681Z,-2.83
2023-02-09T08:41:10.432Z,-2.77
2023-02-09T08:43:37.690Z,-2.80
2023-02-09T08:46:11.176Z,-3.00
2023-02-09T08:48:43.726Z,-2.76
2023-02-09T08:51:13.824Z,-2.67
2023-02-09T08:53:41.475Z,-2.58
2023-02-09T08:56:09.190Z,-2.42
2023-02-09T08:58:36.760Z,-2.74
2023-02-09T09:01:06.030Z,-3.01
2023-02-09T09:03:33.375Z,-2.73
2023-02-09T09:06:02.466Z,-2.91
2023-02-09T09:08:30.710Z,-2.67
2023-02-09T09:10:59.058Z,-2.77
2023-02-09T09:13:26.351Z,-2.35
2023-02-09T09:15:56.636Z,-2.33
2023-02-09T09:18:25.180Z,-2.06
2023-02-09T09:20:53.275Z,-2.06
2023-02-09T09:23:21.477Z,-2.51
2023-02-09T09:25:48.969Z,-2.06
2023-02-09T09:28:16.465Z,-1.86
2023-02-09T09:30:43.630Z,-1.85
2023-02-09T09:33:10.779Z,-1.67
2023-02-09T09:35:38.078Z,-1.62
2023-02-09T09:38:05.181Z,-1.70
2023-02-09T09:40:36.086Z,-1.53
2023-02-09T09:43:14.631Z,-1.20
2023-02-09T09:45:41.884Z,-1.27
2023-02-09T09:48:25.568Z,-1.59
2023-02-09T09:50:58.385Z,-1.11
2023-02-09T09:53:33.474Z,-0.62
2023-02-09T09:56:07.221Z,-1.75
2023-02-09T09:58:35.562Z,-1.66
2023-02-09T10:01:02.768Z,-1.10
2023-02-09T10:03:29.772Z,-0.46
2023-02-09T10:06:01.589Z,-0.20
2023-02-09T10:08:45.002Z,-0.32
2023-02-09T10:11:18.212Z,-0.14
2023-02-09T10:13:50.936Z,0.19
2023-02-09T10:16:17.866Z,0.63
2023-02-09T10:18:46.368Z,0.40
2023-02-09T10:21:17.975Z,0.17
2023-02-09T10:24:09.411Z,0.52
2023-02-09T10:26:40.256Z,0.55
2023-02-09T10:29:13.690Z,0.78
2023-02-09T10:31:50.867Z,0.49
2023-02-09T10:34:43.793Z,0.43
2023-02-09T10:37:20.086Z,0.29
2023-02-09T10:40:00.473Z,-0.14
2023-02-09T10:42:31.601Z,0.51
2023-02-09T10:45:08.985Z,0.76
2023-02-09T10:47:36.568Z,0.63
2023-02-09T10:50:13.244Z,0.98
2023-02-09T10:52:54.865Z,1.13
2023-02-09T10:55:26.771Z,1.31
2023-02-09T10:58:05.298Z,1.55
2023-02-09T11:00:41.770Z,1.38
2023-02-09T11:03:21.572Z,1.35
2023-02-09T11:05:59.946Z,1.86
2023-02-09T11:08:38.140Z,1.65
2023-02-09T11:11:26.365Z,1.83
2023-02-09T11:13:54.147Z,0.78
2023-02-09T11:16:44.898Z,0.69
2023-02-09T11:19:22.791Z,0.94
2023-02-09T11:22:12.372Z,0.99
2023-02-09T11:25:03.336Z,1.17
2023-02-09T11:27:48.138Z,0.91
2023-02-09T11:30:31.301Z,1.12
2023-02-09T11:33:26.444Z,1.02
2023-02-09T11:36:15.382Z,1.47
2023-02-09T11:39:04.321Z,1.66
2023-02-09T11:41:56.461Z,2.35
2023-02-09T11:44:32.476Z,2.26
2023-02-09T11:47:06.621Z,2.36
2023-02-09T11:49:50.576Z,2.72
2023-02-09T11:52:27.614Z,2.97
2023-02-09T11:54:59.504Z,2.67
2023-02-09T11:57:43.556Z,3.11
2023-02-09T12:00:19.468Z,3.23
2023-02-09T12:03:11.790Z,3.01
2023-02-09T12:05:40.740Z,2.63
2023-02-09T12:08:27.005Z,3.02
2023-02-09T12:11:14.686Z,3.27
2023-02-09T12:14:12.602Z,3.20
2023-02-09T12:16:43.555Z,2.89
2023-02-09T12:19:30.564Z,2.94
2023-02-09T12:21:57.612Z,3.02
2023-02-09T12:24:41.030Z,3.47
2023-02-09T12:27:25.843Z,3.75
2023-02-09T12:29:52.869Z,3.38
2023-02-09T12:32:41.474Z,3.85
2023-02-09T12:35:39.307Z,4.01
2023-02-09T12:38:22.194Z,4.01
2023-02-09T12:41:07.624Z,3.48
2023-02-09T12:43:37.104Z,4.40
2023-02-09T12:46:20.285Z,5.25
2023-02-09T12:49:02.180Z,5.96
2023-02-09T12:51:50.637Z,5.00
2023-02-09T12:54:38.617Z,5.28
2023-02-09T12:57:18.205Z,4.73
2023-02-09T12:59:51.141Z,5.76
2023-02-09T13:02:27.337Z,6.18
2023-02-09T13:05:12.854Z,6.02
2023-02-09T13:07:42.816Z,5.40
2023-02-09T13:10:18.757Z,6.91
2023-02-09T13:13:14.525Z,7.18
2023-02-09T13:16:06.058Z,5.82
2023-02-09T13:18:52.507Z,6.16
2023-02-09T13:21:28.881Z,7.50
2023-02-09T13:24:20.161Z,7.44
2023-02-09T13:26:55.785Z,7.44
2023-02-09T13:29:28.940Z,6.57
2023-02-09T13:31:55.863Z,7.13
2023-02-09T13:34:43.420Z,8.22
2023-02-09T13:37:36.589Z,9.00
2023-02-09T13:40:18.367Z,9.41
2023-02-09T13:43:02.294Z,9.45
2023-02-09T13:45:31.078Z,8.58
2023-02-09T13:48:04.426Z,7.81
2023-02-09T13:50:33.857Z,6.51
2023-02-09T13:53:11.095Z,6.69
2023-02-09T13:55:46.018Z,6.00
2023-02-09T13:58:27.546Z,6.51
2023-02-09T14:01:08.257Z,7.74
2023-02-09T14:03:57.872Z,8.43
2023-02-09T14:06:40.917Z,8.27
2023-02-09T14:09:33.576Z,6.14
2023-02-09T14:12:07.229Z,5.57
2023-02-09T14:15:03.695Z,5.61
2023-02-09T14:17:35.369Z,6.59
2023-02-09T14:20:03.470Z,6.66
2023-02-09T14:22:40.377Z,6.40
2023-02-09T14:25:13.809Z,7.78
2023-02-09T14:27:45.956Z,8.28
2023-02-09T14:30:18.148Z,6.80
2023-02-09T14:32:48.485Z,5.76
2023-02-09T14:35:25.671Z,5.63
2023-02-09T14:37:55.489Z,5.37
2023-02-09T14:40:25.264Z,5.40
2023-02-09T14:43:12.019Z,6.28
2023-02-09T14:45:48.741Z,6.14
2023-02-09T14:48:16.924Z,5.50
2023-02-09T14:50:43.981Z,6.52
2023-02-09T14:53:14.843Z,5.55
2023-02-09T14:55:42.986Z,5.59
2023-02-09T14:58:21.870Z,5.02
2023-02-09T15:00:50.418Z,5.51
2023-02-09T15:03:17.388Z,6.70
2023-02-09T15:05:45.568Z,6.48
2023-02-09T15:08:17.277Z,6.47
2023-02-09T15:10:48.082Z,5.50
2023-02-09T15:13:16.397Z,5.23
2023-02-09T15:15:43.596Z,5.26
2023-02-09T15:18:21.201Z,4.25
2023-02-09T15:20:48.874Z,3.93
2023-02-09T15:23:18.643Z,3.70
2023-02-09T15:25:46.876Z,3.76
2023-02-09T15:28:33.748Z,3.84
2023-02-09T15:31:00.956Z,3.92
2023-02-09T15:33:29.813Z,3.48
2023-02-09T15:35:59.783Z,3.48
2023-02-09T15:38:27.908Z,3.49
2023-02-09T15:41:13.538Z,3.20
2023-02-09T15:43:59.569Z,3.08
2023-02-09T15:46:45.125Z,2.85
2023-02-09T15:49:12.390Z,2.61
2023-02-09T15:51:41.325Z,2.31
2023-02-09T15:54:32.127Z,2.08
2023-02-09T15:57:01.102Z,1.95
2023-02-09T15:59:31.550Z,1.78
2023-02-09T16:02:00.329Z,1.68
2023-02-09T16:04:27.953Z,1.59
2023-02-09T16:06:55.315Z,1.49
2023-02-09T16:09:27.868Z,1.42
2023-02-09T16:11:55.552Z,1.32
2023-02-09T16:14:25.232Z,1.41
2023-02-09T16:16:53.042Z,1.20
2023-02-09T16:19:21.576Z,1.11
2023-02-09T16:21:54.515Z,1.05
2023-02-09T16:24:36.532Z,1.00
2023-02-09T16:27:13.244Z,0.90
2023-02-09T16:29:40.782Z,0.89
2023-02-09T16:32:19.853Z,0.94
2023-02-09T16:34:47.030Z,1.05
2023-02-09T16:37:19.982Z,1.09
2023-02-09T16:39:47.651Z,1.14
2023-02-09T16:42:16.089Z,1.12
2023-02-09T16:44:43.321Z,1.07
2023-02-09T16:47:21.392Z,0.98
2023-02-09T16:49:57.953Z,0.64
2023-02-09T16:52:30.424Z,0.51
2023-02-09T16:55:00.006Z,0.45
2023-02-09T16:57:28.523Z,0.32
2023-02-09T16:59:55.753Z,0.28
2023-02-09T17:02:29.805Z,0.30
2023-02-09T17:04:58.289Z,0.24
2023-02-09T17:07:30.514Z,0.28
2023-02-09T17:09:57.760Z,0.26
2023-02-09T17:12:24.926Z,0.29
2023-02-09T17:14:51.902Z,0.21
2023-02-09T17:17:25.274Z,0.12
2023-02-09T17:19:54.307Z,0.13
2023-02-09T17:22:24.921Z,0.11
2023-02-09T17:24:52.299Z,-0.01
2023-02-09T17:27:19.295Z,-0.03
2023-02-09T17:29:46.930Z,-0.09
2023-02-09T17:32:15.902Z,-0.07
2023-02-09T17:34:43.340Z,-0.09
2023-02-09T17:37:14.048Z,-0.18
2023-02-09T17:39:41.410Z,-0.12
2023-02-09T17:42:20.605Z,-0.16
2023-02-09T17:44:48.016Z,-0.14
2023-02-09T17:47:17.423Z,-0.28
2023-02-09T17:49:44.899Z,-0.40
2023-02-09T17:52:17.978Z,-0.42
2023-02-09T17:54:45.928Z,-0.52
2023-02-09T17:57:17.544Z,-0.59
2023-02-09T17:59:46.242Z,-0.60
2023-02-09T18:02:16.491Z,-0.58
2023-02-09T18:04:44.160Z,-0.59
2023-02-09T18:07:13.051Z,-0.60
2023-02-09T18:09:40.323Z,-0.68
2023-02-09T18:12:33.279Z,-0.76
2023-02-09T18:15:00.403Z,-1.09
2023-02-09T18:17:27.585Z,-1.03
2023-02-09T18:19:56.961Z,-1.04
2023-02-09T18:22:24.068Z,-0.93
2023-02-09T18:24:51.160Z,-1.03
2023-02-09T18:27:21.191Z,-1.04
2023-02-09T18:29:48.290Z,-1.21
2023-02-09T18:32:17.157Z,-1.10
2023-02-09T18:34:44.612Z,-0.99
2023-02-09T18:37:16.810Z,-1.03
2023-02-09T18:39:46.859Z,-1.01
2023-02-09T18:42:15.530Z,-1.08
2023-02-09T18:44:42.572Z,-1.03
2023-02-09T18:47:11.016Z,-0.99
2023-02-09T18:49:39.065Z,-1.11
2023-02-09T18:52:06.539Z,-1.28
2023-02-09T18:54:34.319Z,-1.35
2023-02-09T18:57:01.304Z,-1.39
2023-02-09T18:59:32.507Z,-1.46
2023-02-09T19:01:59.874Z,-1.54
2023-02-09T19:04:27.377Z,-1.60
2023-02-09T19:06:54.565Z,-1.64
2023-02-09T19:09:21.658Z,-1.70
2023-02-09T19:11:48.770Z,-1.68
2023-02-09T19:14:34.198Z,-1.67
2023-02-09T19:17:01.539Z,-1.65
2023-02-09T19:19:28.853Z,-1.67
2023-02-09T19:21:57.955Z,-1.68
2023-02-09T19:24:24.945Z,-1.78
2023-02-09T19:26:52.007Z,-1.92
2023-02-09T19:29:19.048Z,-1.94
2023-02-09T19:31:46.760Z,-2.17
2023-02-09T19:34:13.741Z,-2.32
2023-02-09T19:36:40.809Z,-2.46
2023-02-09T19:39:07.830Z,-2.55
2023-02-09T19:41:34.955Z,-2.59
2023-02-09T19:44:02.065Z,-2.65
2023-02-09T19:46:29.286Z,-2.61
2023-02-09T19:48:57.717Z,-2.67
2023-02-09T19:51:25.580Z,-2.67
2023-02-09T19:53:52.536Z,-2.77
2023-02-09T19:56:21.054Z,-2.78
2023-02-09T19:58:48.053Z,-2.78
2023-02-09T20:01:15.211Z,-2.81
2023-02-09T20:03:42.649Z,-2.93
2023-02-09T20:06:14.128Z,-3.01
2023-02-09T20:08:41.574Z,-3.01
2023-02-09T20:11:13.651Z,-3.01
2023-02-09T20:13:40.691Z,-3.05
2023-02-09T20:16:14.716Z,-3.03
2023-02-09T20:18:41.751Z,-2.93
2023-02-09T20:21:09.729Z,-3.06
2023-02-09T20:23:38.817Z,-3.16
2023-02-09T20:26:17.197Z,-3.26
2023-02-09T20:28:44.510Z,-3.31
2023-02-09T20:31:11.565Z,-3.43
2023-02-09T20:33:39.753Z,-3.49
2023-02-09T20:36:12.295Z,-3.60
2023-02-09T20:38:48.283Z,-3.52
2023-02-09T20:41:18.330Z,-3.52
2023-02-09T20:44:04.443Z,-3.45
2023-02-09T20:46:52.391Z,-3.48
2023-02-09T20:49:19.849Z,-3.53
2023-02-09T20:51:47.404Z,-3.50
2023-02-09T20:54:15.279Z,-3.55
2023-02-09T20:56:42.327Z,-3.47
2023-02-09T20:59:09.655Z,-3.48
2023-02-09T21:01:37.857Z,-3.61
2023-02-09T21:04:06.623Z,-3.59
2023-02-09T21:06:34.870Z,-3.45
2023-02-09T21:09:01.917Z,-3.43
2023-02-09T21:11:29.012Z,-3.44
2023-02-09T21:13:56.070Z,-3.57
2023-02-09T21:16:25.648Z,-3.54
2023-02-09T21:18:52.899Z,-3.56
2023-02-09T21:21:22.375Z,-3.48
2023-02-09T21:23:49.877Z,-3.39
2023-02-09T21:26:18.344Z,-3.43
2023-02-09T21:28:48.457Z,-3.48
2023-02-09T21:31:21.790Z,-3.36
2023-02-09T21:33:49.367Z,-3.48
2023-02-09T21:36:16.362Z,-3.45
2023-02-09T21:38:43.445Z,-3.37
2023-02-09T21:41:35.616Z,-3.40
2023-02-09T21:44:02.859Z,-3.46
2023-02-09T21:46:30.075Z,-3.55
2023-02-09T21:48:57.200Z,-3.63
2023-02-09T21:51:24.669Z,-3.60
2023-02-09T21:53:52.250Z,-3.76
2023-02-09T21:56:19.398Z,-3.69
2023-02-09T21:58:46.864Z,-3.65
2023-02-09T22:01:14.091Z,-3.89
2023-02-09T22:03:44.946Z,-4.06
2023-02-09T22:06:12.042Z,-4.13
2023-02-09T22:08:39.168Z,-4.20
2023-02-09T22:11:06.446Z,-4.15
2023-02-09T22:13:34.244Z,-4.11
2023-02-09T22:16:07.331Z,-4.16
2023-02-09T22:18:35.070Z,-4.14
2023-02-09T22:21:06.100Z,-4.16
2023-02-09T22:23:33.586Z,-4.09
2023-02-09T22:26:05.628Z,-4.08
2023-02-09T22:28:36.178Z,-4.08
2023-02-09T22:31:14.679Z,-4.11
2023-02-09T22:33:42.342Z,-4.12
2023-02-09T22:36:13.839Z,-4.19
2023-02-09T22:38:41.367Z,-4.10
2023-02-09T22:41:21.759Z,-4.16
2023-02-09T22:44:00.751Z,-4.23
2023-02-09T22:46:31.443Z,-4.29
2023-02-09T22:49:01.010Z,-4.22
2023-02-09T22:51:30.256Z,-4.25
2023-02-09T22:53:59.091Z,-4.27
2023-02-09T22:56:27.623Z,-4.24
2023-02-09T22:58:58.870Z,-4.26
2023-02-09T23:01:26.830Z,-4.29
2023-02-09T23:03:54.094Z,-4.32
2023-02-09T23:06:27.434Z,-4.27
2023-02-09T23:08:56.476Z,-4.35
2023-02-09T23:11:24.611Z,-4.40
2023-02-09T23:14:07.064Z,-4.37
2023-02-09T23:16:36.371Z,-4.48
2023-02-09T23:19:05.991Z,-4.42
2023-02-09T23:21:36.453Z,-4.33
2023-02-09T23:24:04.793Z,-4.34
2023-02-09T23:26:31.892Z,-4.45
2023-02-09T23:29:00.860Z,-4.55
2023-02-09T23:31:28.679Z,-4.60
2023-02-09T23:33:56.625Z,-4.63
2023-02-09T23:36:29.220Z,-4.66
2023-02-09T23:38:58.964Z,-4.74
2023-02-09T23:41:26.846Z,-4.74
2023-02-09T23:43:54.572Z,-4.73
2023-02-09T23:46:24.482Z,-4.68
2023-02-09T23:48:54.902Z,-4.67
2023-02-09T23:51:31.511Z,-4.61
2023-02-09T23:54:01.123Z,-4.60
2023-02-09T23:56:30.080Z,-4.56
2023-02-09T23:58:57.195Z,-4.52
